sensor_id;sensor_type;location;lat;lon;timestamp;P1;durP1;ratioP1;P2;durP2;ratioP2
55913;SDS011;58179;48.776;9.124;2023-07-13T00:00:41;5.30;;;1.85;;
55913;SDS011;58179;48.776;9.124;2023-07-13T00:03:07;3.10;;;1.60;;
55913;SDS011;58179;48.776;9.124;2023-07-13T00:05:33;3.03;;;1.65;;
55913;SDS011;58179;48.776;9.124;2023-07-13T00:07:59;3.80;;;1.63;;
55913;SDS011;58179;48.776;9.124;2023-07-13T00:10:26;5.60;;;1.75;;
55913;SDS011;58179;48.776;9.124;2023-07-13T00:12:52;5.18;;;2.15;;
55913;SDS011;58179;48.776;9.124;2023-07-13T00:15:23;4.40;;;1.73;;
55913;SDS011;58179;48.776;9.124;2023-07-13T00:17:51;3.53;;;1.70;;
55913;SDS011;58179;48.776;9.124;2023-07-13T00:20:19;6.65;;;1.80;;
55913;SDS011;58179;48.776;9.124;2023-07-13T00:22:47;6.97;;;2.00;;
55913;SDS011;58179;48.776;9.124;2023-07-13T00:25:13;3.22;;;1.60;;
55913;SDS011;58179;48.776;9.124;2023-07-13T00:27:41;3.83;;;1.85;;
55913;SDS011;58179;48.776;9.124;2023-07-13T00:30:08;4.47;;;2.10;;
55913;SDS011;58179;48.776;9.124;2023-07-13T00:32:37;6.97;;;2.00;;
55913;SDS011;58179;48.776;9.124;2023-07-13T00:35:03;9.27;;;1.88;;
55913;SDS011;58179;48.776;9.124;2023-07-13T00:37:30;4.13;;;1.77;;
55913;SDS011;58179;48.776;9.124;2023-07-13T00:39:56;2.90;;;1.67;;
55913;SDS011;58179;48.776;9.124;2023-07-13T00:42:22;4.80;;;1.90;;
55913;SDS011;58179;48.776;9.124;2023-07-13T00:45:02;3.83;;;2.00;;
55913;SDS011;58179;48.776;9.124;2023-07-13T00:47:53;4.57;;;1.90;;
55913;SDS011;58179;48.776;9.124;2023-07-13T00:50:20;5.05;;;1.92;;
55913;SDS011;58179;48.776;9.124;2023-07-13T00:52:48;4.07;;;1.60;;
55913;SDS011;58179;48.776;9.124;2023-07-13T00:55:16;7.55;;;1.90;;
55913;SDS011;58179;48.776;9.124;2023-07-13T00:57:44;3.80;;;1.58;;
55913;SDS011;58179;48.776;9.124;2023-07-13T01:00:10;4.18;;;1.77;;
55913;SDS011;58179;48.776;9.124;2023-07-13T01:02:38;6.55;;;2.00;;
55913;SDS011;58179;48.776;9.124;2023-07-13T01:05:10;6.43;;;1.70;;
55913;SDS011;58179;48.776;9.124;2023-07-13T01:07:36;6.25;;;2.00;;
55913;SDS011;58179;48.776;9.124;2023-07-13T01:10:03;6.65;;;2.08;;
55913;SDS011;58179;48.776;9.124;2023-07-13T01:12:30;3.33;;;1.83;;
55913;SDS011;58179;48.776;9.124;2023-07-13T01:14:57;5.40;;;2.05;;
55913;SDS011;58179;48.776;9.124;2023-07-13T01:17:25;7.35;;;1.90;;
55913;SDS011;58179;48.776;9.124;2023-07-13T01:19:52;3.28;;;1.90;;
55913;SDS011;58179;48.776;9.124;2023-07-13T01:22:20;5.35;;;1.70;;
55913;SDS011;58179;48.776;9.124;2023-07-13T01:24:52;5.93;;;1.90;;
55913;SDS011;58179;48.776;9.124;2023-07-13T01:27:20;2.58;;;1.67;;
55913;SDS011;58179;48.776;9.124;2023-07-13T01:29:51;2.50;;;2.00;;
55913;SDS011;58179;48.776;9.124;2023-07-13T01:32:19;3.53;;;1.98;;
55913;SDS011;58179;48.776;9.124;2023-07-13T01:34:49;3.90;;;2.00;;
55913;SDS011;58179;48.776;9.124;2023-07-13T01:37:16;3.42;;;1.92;;
55913;SDS011;58179;48.776;9.124;2023-07-13T01:39:43;4.20;;;1.98;;
55913;SDS011;58179;48.776;9.124;2023-07-13T01:42:09;3.75;;;2.00;;
55913;SDS011;58179;48.776;9.124;2023-07-13T01:44:36;4.95;;;2.40;;
55913;SDS011;58179;48.776;9.124;2023-07-13T01:47:02;5.05;;;1.77;;
55913;SDS011;58179;48.776;9.124;2023-07-13T01:49:29;4.82;;;2.40;;
55913;SDS011;58179;48.776;9.124;2023-07-13T01:51:55;2.80;;;1.73;;
55913;SDS011;58179;48.776;9.124;2023-07-13T01:54:21;4.45;;;2.15;;
55913;SDS011;58179;48.776;9.124;2023-07-13T01:56:49;3.08;;;2.13;;
55913;SDS011;58179;48.776;9.124;2023-07-13T01:59:15;3.88;;;1.80;;
55913;SDS011;58179;48.776;9.124;2023-07-13T02:01:41;4.83;;;2.53;;
55913;SDS011;58179;48.776;9.124;2023-07-13T02:04:07;4.43;;;2.25;;
55913;SDS011;58179;48.776;9.124;2023-07-13T02:06:33;4.72;;;2.28;;
55913;SDS011;58179;48.776;9.124;2023-07-13T02:09:00;5.85;;;2.70;;
55913;SDS011;58179;48.776;9.124;2023-07-13T02:11:26;6.60;;;2.30;;
55913;SDS011;58179;48.776;9.124;2023-07-13T02:13:58;3.38;;;2.58;;
55913;SDS011;58179;48.776;9.124;2023-07-13T02:16:26;6.75;;;2.58;;
55913;SDS011;58179;48.776;9.124;2023-07-13T02:18:53;4.55;;;2.45;;
55913;SDS011;58179;48.776;9.124;2023-07-13T02:21:20;4.72;;;2.83;;
55913;SDS011;58179;48.776;9.124;2023-07-13T02:23:46;5.65;;;2.50;;
55913;SDS011;58179;48.776;9.124;2023-07-13T02:26:13;6.10;;;2.83;;
55913;SDS011;58179;48.776;9.124;2023-07-13T02:28:39;5.37;;;2.57;;
55913;SDS011;58179;48.776;9.124;2023-07-13T02:31:07;4.63;;;2.78;;
55913;SDS011;58179;48.776;9.124;2023-07-13T02:33:35;4.32;;;2.55;;
55913;SDS011;58179;48.776;9.124;2023-07-13T02:36:01;4.20;;;2.60;;
55913;SDS011;58179;48.776;9.124;2023-07-13T02:38:28;6.22;;;3.20;;
55913;SDS011;58179;48.776;9.124;2023-07-13T02:40:55;6.28;;;2.92;;
55913;SDS011;58179;48.776;9.124;2023-07-13T02:43:21;4.75;;;2.97;;
55913;SDS011;58179;48.776;9.124;2023-07-13T02:45:47;6.65;;;3.15;;
55913;SDS011;58179;48.776;9.124;2023-07-13T02:48:15;8.03;;;3.60;;
55913;SDS011;58179;48.776;9.124;2023-07-13T02:50:42;5.10;;;3.17;;
55913;SDS011;58179;48.776;9.124;2023-07-13T02:53:09;5.95;;;3.30;;
55913;SDS011;58179;48.776;9.124;2023-07-13T02:55:35;4.20;;;3.17;;
55913;SDS011;58179;48.776;9.124;2023-07-13T02:58:01;3.10;;;2.80;;
55913;SDS011;58179;48.776;9.124;2023-07-13T03:00:28;4.72;;;3.10;;
55913;SDS011;58179;48.776;9.124;2023-07-13T03:02:54;3.97;;;2.80;;
55913;SDS011;58179;48.776;9.124;2023-07-13T03:05:23;4.35;;;2.80;;
55913;SDS011;58179;48.776;9.124;2023-07-13T03:07:50;3.95;;;2.70;;
55913;SDS011;58179;48.776;9.124;2023-07-13T03:10:16;3.35;;;2.83;;
55913;SDS011;58179;48.776;9.124;2023-07-13T03:12:42;4.65;;;3.35;;
55913;SDS011;58179;48.776;9.124;2023-07-13T03:15:09;5.20;;;3.15;;
55913;SDS011;58179;48.776;9.124;2023-07-13T03:17:35;6.20;;;3.50;;
55913;SDS011;58179;48.776;9.124;2023-07-13T03:20:01;3.85;;;3.20;;
55913;SDS011;58179;48.776;9.124;2023-07-13T03:22:29;5.18;;;3.20;;
55913;SDS011;58179;48.776;9.124;2023-07-13T03:24:56;9.88;;;3.58;;
55913;SDS011;58179;48.776;9.124;2023-07-13T03:27:22;6.22;;;3.25;;
55913;SDS011;58179;48.776;9.124;2023-07-13T03:29:48;5.80;;;2.92;;
55913;SDS011;58179;48.776;9.124;2023-07-13T03:32:15;3.78;;;3.08;;
55913;SDS011;58179;48.776;9.124;2023-07-13T03:34:41;4.10;;;3.08;;
55913;SDS011;58179;48.776;9.124;2023-07-13T03:37:07;3.70;;;3.03;;
55913;SDS011;58179;48.776;9.124;2023-07-13T03:39:34;4.28;;;2.97;;
55913;SDS011;58179;48.776;9.124;2023-07-13T03:42:01;3.92;;;3.00;;
55913;SDS011;58179;48.776;9.124;2023-07-13T03:44:27;4.05;;;3.08;;
55913;SDS011;58179;48.776;9.124;2023-07-13T03:46:53;3.80;;;2.93;;
55913;SDS011;58179;48.776;9.124;2023-07-13T03:49:19;5.10;;;3.10;;
55913;SDS011;58179;48.776;9.124;2023-07-13T03:51:46;7.53;;;3.25;;
55913;SDS011;58179;48.776;9.124;2023-07-13T03:54:12;3.95;;;3.00;;
55913;SDS011;58179;48.776;9.124;2023-07-13T03:56:39;4.15;;;3.00;;
55913;SDS011;58179;48.776;9.124;2023-07-13T03:59:06;4.05;;;2.97;;
55913;SDS011;58179;48.776;9.124;2023-07-13T04:01:32;3.60;;;3.10;;
55913;SDS011;58179;48.776;9.124;2023-07-13T04:03:58;5.07;;;3.00;;
55913;SDS011;58179;48.776;9.124;2023-07-13T04:06:26;4.50;;;2.83;;
55913;SDS011;58179;48.776;9.124;2023-07-13T04:08:55;3.90;;;2.90;;
55913;SDS011;58179;48.776;9.124;2023-07-13T04:11:24;5.90;;;3.08;;
55913;SDS011;58179;48.776;9.124;2023-07-13T04:13:53;5.78;;;3.40;;
55913;SDS011;58179;48.776;9.124;2023-07-13T04:16:20;5.40;;;3.30;;
55913;SDS011;58179;48.776;9.124;2023-07-13T04:18:47;5.20;;;3.00;;
55913;SDS011;58179;48.776;9.124;2023-07-13T04:21:14;4.13;;;3.20;;
55913;SDS011;58179;48.776;9.124;2023-07-13T04:23:41;4.65;;;3.38;;
55913;SDS011;58179;48.776;9.124;2023-07-13T04:26:07;4.55;;;3.08;;
55913;SDS011;58179;48.776;9.124;2023-07-13T04:28:34;4.53;;;2.90;;
55913;SDS011;58179;48.776;9.124;2023-07-13T04:31:02;3.95;;;3.10;;
55913;SDS011;58179;48.776;9.124;2023-07-13T04:33:28;3.50;;;2.78;;
55913;SDS011;58179;48.776;9.124;2023-07-13T04:35:54;4.83;;;3.17;;
55913;SDS011;58179;48.776;9.124;2023-07-13T04:38:21;4.75;;;3.00;;
55913;SDS011;58179;48.776;9.124;2023-07-13T04:40:49;4.50;;;3.00;;
55913;SDS011;58179;48.776;9.124;2023-07-13T04:43:16;6.03;;;3.40;;
55913;SDS011;58179;48.776;9.124;2023-07-13T04:45:43;8.00;;;3.30;;
55913;SDS011;58179;48.776;9.124;2023-07-13T04:48:10;4.03;;;3.38;;
55913;SDS011;58179;48.776;9.124;2023-07-13T04:50:37;5.80;;;3.10;;
55913;SDS011;58179;48.776;9.124;2023-07-13T04:53:03;6.67;;;3.57;;
55913;SDS011;58179;48.776;9.124;2023-07-13T04:55:30;6.35;;;3.33;;
55913;SDS011;58179;48.776;9.124;2023-07-13T04:57:57;7.43;;;3.47;;
55913;SDS011;58179;48.776;9.124;2023-07-13T05:00:27;5.53;;;3.35;;
55913;SDS011;58179;48.776;9.124;2023-07-13T05:02:54;5.90;;;3.38;;
55913;SDS011;58179;48.776;9.124;2023-07-13T05:05:23;3.53;;;2.80;;
55913;SDS011;58179;48.776;9.124;2023-07-13T05:07:50;4.65;;;3.50;;
55913;SDS011;58179;48.776;9.124;2023-07-13T05:10:17;5.15;;;3.58;;
55913;SDS011;58179;48.776;9.124;2023-07-13T05:12:43;5.55;;;3.80;;
55913;SDS011;58179;48.776;9.124;2023-07-13T05:15:10;4.00;;;3.30;;
55913;SDS011;58179;48.776;9.124;2023-07-13T05:17:36;5.05;;;3.65;;
55913;SDS011;58179;48.776;9.124;2023-07-13T05:20:04;4.78;;;3.70;;
55913;SDS011;58179;48.776;9.124;2023-07-13T05:22:32;4.45;;;3.50;;
55913;SDS011;58179;48.776;9.124;2023-07-13T05:25:00;9.80;;;4.28;;
55913;SDS011;58179;48.776;9.124;2023-07-13T05:27:26;4.97;;;3.40;;
55913;SDS011;58179;48.776;9.124;2023-07-13T05:29:52;4.88;;;3.55;;
55913;SDS011;58179;48.776;9.124;2023-07-13T05:32:18;4.85;;;3.78;;
55913;SDS011;58179;48.776;9.124;2023-07-13T05:34:44;4.65;;;3.55;;
55913;SDS011;58179;48.776;9.124;2023-07-13T05:37:11;6.20;;;4.00;;
55913;SDS011;58179;48.776;9.124;2023-07-13T05:39:38;4.45;;;3.30;;
55913;SDS011;58179;48.776;9.124;2023-07-13T05:42:05;6.75;;;3.42;;
55913;SDS011;58179;48.776;9.124;2023-07-13T05:44:32;5.40;;;3.30;;
55913;SDS011;58179;48.776;9.124;2023-07-13T05:46:58;4.05;;;3.58;;
55913;SDS011;58179;48.776;9.124;2023-07-13T05:49:24;6.28;;;3.72;;
55913;SDS011;58179;48.776;9.124;2023-07-13T05:51:50;4.95;;;3.60;;
55913;SDS011;58179;48.776;9.124;2023-07-13T05:54:17;6.23;;;3.90;;
55913;SDS011;58179;48.776;9.124;2023-07-13T05:56:44;6.22;;;3.90;;
55913;SDS011;58179;48.776;9.124;2023-07-13T05:59:10;4.95;;;3.63;;
55913;SDS011;58179;48.776;9.124;2023-07-13T06:01:37;5.80;;;3.45;;
55913;SDS011;58179;48.776;9.124;2023-07-13T06:04:03;4.55;;;3.83;;
55913;SDS011;58179;48.776;9.124;2023-07-13T06:06:29;7.10;;;4.15;;
55913;SDS011;58179;48.776;9.124;2023-07-13T06:08:56;4.22;;;3.83;;
55913;SDS011;58179;48.776;9.124;2023-07-13T06:11:24;7.33;;;4.13;;
55913;SDS011;58179;48.776;9.124;2023-07-13T06:13:53;5.00;;;3.65;;
55913;SDS011;58179;48.776;9.124;2023-07-13T06:16:20;6.05;;;3.63;;
55913;SDS011;58179;48.776;9.124;2023-07-13T06:18:46;6.68;;;3.33;;
55913;SDS011;58179;48.776;9.124;2023-07-13T06:21:13;3.47;;;3.17;;
55913;SDS011;58179;48.776;9.124;2023-07-13T06:23:41;7.10;;;3.38;;
55913;SDS011;58179;48.776;9.124;2023-07-13T06:26:08;5.30;;;2.70;;
55913;SDS011;58179;48.776;9.124;2023-07-13T06:28:35;4.35;;;3.05;;
55913;SDS011;58179;48.776;9.124;2023-07-13T06:31:04;5.15;;;2.97;;
55913;SDS011;58179;48.776;9.124;2023-07-13T06:33:32;4.50;;;2.72;;
55913;SDS011;58179;48.776;9.124;2023-07-13T06:35:58;5.45;;;2.50;;
55913;SDS011;58179;48.776;9.124;2023-07-13T06:38:24;4.70;;;2.47;;
55913;SDS011;58179;48.776;9.124;2023-07-13T06:40:51;6.07;;;2.58;;
55913;SDS011;58179;48.776;9.124;2023-07-13T06:43:17;2.50;;;2.17;;
55913;SDS011;58179;48.776;9.124;2023-07-13T06:45:46;3.17;;;2.40;;
55913;SDS011;58179;48.776;9.124;2023-07-13T06:48:16;4.25;;;2.35;;
55913;SDS011;58179;48.776;9.124;2023-07-13T06:50:43;4.33;;;2.10;;
55913;SDS011;58179;48.776;9.124;2023-07-13T06:53:10;6.87;;;2.40;;
55913;SDS011;58179;48.776;9.124;2023-07-13T06:55:37;4.95;;;2.40;;
55913;SDS011;58179;48.776;9.124;2023-07-13T06:58:04;2.90;;;2.08;;
55913;SDS011;58179;48.776;9.124;2023-07-13T07:00:31;5.50;;;2.20;;
55913;SDS011;58179;48.776;9.124;2023-07-13T07:02:57;2.85;;;2.10;;
55913;SDS011;58179;48.776;9.124;2023-07-13T07:05:25;3.63;;;2.00;;
55913;SDS011;58179;48.776;9.124;2023-07-13T07:07:51;2.22;;;1.90;;
55913;SDS011;58179;48.776;9.124;2023-07-13T07:10:19;4.25;;;2.25;;
55913;SDS011;58179;48.776;9.124;2023-07-13T07:12:45;3.47;;;2.20;;
55913;SDS011;58179;48.776;9.124;2023-07-13T07:15:12;7.05;;;2.42;;
55913;SDS011;58179;48.776;9.124;2023-07-13T07:17:38;5.32;;;2.20;;
55913;SDS011;58179;48.776;9.124;2023-07-13T07:20:05;3.40;;;1.60;;
55913;SDS011;58179;48.776;9.124;2023-07-13T07:22:33;4.63;;;1.77;;
55913;SDS011;58179;48.776;9.124;2023-07-13T07:24:59;5.63;;;1.70;;
55913;SDS011;58179;48.776;9.124;2023-07-13T07:27:26;4.95;;;1.70;;
55913;SDS011;58179;48.776;9.124;2023-07-13T07:29:52;5.88;;;1.75;;
55913;SDS011;58179;48.776;9.124;2023-07-13T07:32:18;2.50;;;1.58;;
55913;SDS011;58179;48.776;9.124;2023-07-13T07:34:45;3.65;;;1.70;;
55913;SDS011;58179;48.776;9.124;2023-07-13T07:37:12;3.13;;;1.50;;
55913;SDS011;58179;48.776;9.124;2023-07-13T07:39:41;3.57;;;1.50;;
55913;SDS011;58179;48.776;9.124;2023-07-13T07:42:09;2.00;;;1.60;;
55913;SDS011;58179;48.776;9.124;2023-07-13T07:44:37;2.42;;;1.40;;
55913;SDS011;58179;48.776;9.124;2023-07-13T07:47:04;1.77;;;1.30;;
55913;SDS011;58179;48.776;9.124;2023-07-13T07:49:31;1.92;;;1.23;;
55913;SDS011;58179;48.776;9.124;2023-07-13T07:51:57;4.68;;;1.70;;
55913;SDS011;58179;48.776;9.124;2023-07-13T07:54:23;3.08;;;2.10;;
55913;SDS011;58179;48.776;9.124;2023-07-13T07:56:51;5.95;;;1.77;;
55913;SDS011;58179;48.776;9.124;2023-07-13T07:59:18;3.75;;;1.63;;
55913;SDS011;58179;48.776;9.124;2023-07-13T08:01:44;4.90;;;1.58;;
55913;SDS011;58179;48.776;9.124;2023-07-13T08:04:13;2.77;;;1.60;;
55913;SDS011;58179;48.776;9.124;2023-07-13T08:06:39;4.10;;;1.60;;
55913;SDS011;58179;48.776;9.124;2023-07-13T08:09:05;3.50;;;1.42;;
55913;SDS011;58179;48.776;9.124;2023-07-13T08:11:33;7.97;;;1.90;;
55913;SDS011;58179;48.776;9.124;2023-07-13T08:14:00;2.65;;;1.35;;
55913;SDS011;58179;48.776;9.124;2023-07-13T08:16:26;2.92;;;1.52;;
55913;SDS011;58179;48.776;9.124;2023-07-13T08:18:53;4.35;;;1.63;;
55913;SDS011;58179;48.776;9.124;2023-07-13T08:21:19;2.85;;;1.50;;
55913;SDS011;58179;48.776;9.124;2023-07-13T08:23:46;4.70;;;1.60;;
55913;SDS011;58179;48.776;9.124;2023-07-13T08:26:12;3.22;;;1.50;;
55913;SDS011;58179;48.776;9.124;2023-07-13T08:28:39;3.23;;;1.77;;
55913;SDS011;58179;48.776;9.124;2023-07-13T08:31:07;2.53;;;1.52;;
55913;SDS011;58179;48.776;9.124;2023-07-13T08:33:34;2.78;;;1.60;;
55913;SDS011;58179;48.776;9.124;2023-07-13T08:36:01;2.07;;;1.67;;
55913;SDS011;58179;48.776;9.124;2023-07-13T08:38:27;2.25;;;1.40;;
55913;SDS011;58179;48.776;9.124;2023-07-13T08:40:55;2.83;;;1.80;;
55913;SDS011;58179;48.776;9.124;2023-07-13T08:43:23;2.95;;;1.50;;
55913;SDS011;58179;48.776;9.124;2023-07-13T08:45:53;2.90;;;1.50;;
55913;SDS011;58179;48.776;9.124;2023-07-13T08:48:26;2.42;;;1.60;;
55913;SDS011;58179;48.776;9.124;2023-07-13T08:50:56;2.83;;;1.60;;
55913;SDS011;58179;48.776;9.124;2023-07-13T08:55:59;3.53;;;1.63;;
55913;SDS011;58179;48.776;9.124;2023-07-13T08:58:26;4.22;;;1.70;;
55913;SDS011;58179;48.776;9.124;2023-07-13T09:00:55;2.80;;;1.73;;
55913;SDS011;58179;48.776;9.124;2023-07-13T09:03:36;2.25;;;1.52;;
55913;SDS011;58179;48.776;9.124;2023-07-13T09:06:08;6.07;;;1.75;;
55913;SDS011;58179;48.776;9.124;2023-07-13T09:08:42;2.38;;;1.60;;
55913;SDS011;58179;48.776;9.124;2023-07-13T09:11:23;2.03;;;1.27;;
55913;SDS011;58179;48.776;9.124;2023-07-13T09:14:01;4.15;;;1.60;;
55913;SDS011;58179;48.776;9.124;2023-07-13T09:16:38;3.60;;;1.60;;
55913;SDS011;58179;48.776;9.124;2023-07-13T09:19:09;3.50;;;1.20;;
55913;SDS011;58179;48.776;9.124;2023-07-13T09:21:42;5.70;;;1.38;;
55913;SDS011;58179;48.776;9.124;2023-07-13T09:24:28;2.50;;;1.40;;
55913;SDS011;58179;48.776;9.124;2023-07-13T09:27:01;3.72;;;1.67;;
55913;SDS011;58179;48.776;9.124;2023-07-13T09:29:34;5.82;;;1.85;;
55913;SDS011;58179;48.776;9.124;2023-07-13T09:32:03;2.05;;;1.40;;
55913;SDS011;58179;48.776;9.124;2023-07-13T09:34:35;5.40;;;1.50;;
55913;SDS011;58179;48.776;9.124;2023-07-13T09:37:01;2.97;;;1.40;;
55913;SDS011;58179;48.776;9.124;2023-07-13T09:39:30;2.92;;;1.30;;
55913;SDS011;58179;48.776;9.124;2023-07-13T09:42:01;3.88;;;1.42;;
55913;SDS011;58179;48.776;9.124;2023-07-13T09:44:33;2.70;;;1.20;;
55913;SDS011;58179;48.776;9.124;2023-07-13T09:47:01;2.90;;;1.30;;
55913;SDS011;58179;48.776;9.124;2023-07-13T09:49:28;10.93;;;1.95;;
55913;SDS011;58179;48.776;9.124;2023-07-13T09:52:02;3.13;;;1.27;;
55913;SDS011;58179;48.776;9.124;2023-07-13T09:54:32;12.98;;;2.10;;
55913;SDS011;58179;48.776;9.124;2023-07-13T09:56:59;2.75;;;1.10;;
55913;SDS011;58179;48.776;9.124;2023-07-13T09:59:28;1.77;;;1.25;;
55913;SDS011;58179;48.776;9.124;2023-07-13T10:01:57;4.07;;;1.38;;
55913;SDS011;58179;48.776;9.124;2023-07-13T10:04:27;2.00;;;1.30;;
55913;SDS011;58179;48.776;9.124;2023-07-13T10:07:05;1.88;;;1.20;;
55913;SDS011;58179;48.776;9.124;2023-07-13T10:09:33;1.52;;;1.23;;
55913;SDS011;58179;48.776;9.124;2023-07-13T10:11:59;1.80;;;1.30;;
55913;SDS011;58179;48.776;9.124;2023-07-13T10:14:26;5.63;;;2.10;;
55913;SDS011;58179;48.776;9.124;2023-07-13T10:16:56;4.20;;;1.40;;
55913;SDS011;58179;48.776;9.124;2023-07-13T10:19:25;2.77;;;1.40;;
55913;SDS011;58179;48.776;9.124;2023-07-13T10:21:57;3.70;;;1.50;;
55913;SDS011;58179;48.776;9.124;2023-07-13T10:24:26;2.60;;;1.40;;
55913;SDS011;58179;48.776;9.124;2023-07-13T10:26:56;4.40;;;1.40;;
55913;SDS011;58179;48.776;9.124;2023-07-13T10:29:27;4.20;;;1.90;;
55913;SDS011;58179;48.776;9.124;2023-07-13T10:31:54;5.03;;;1.40;;
55913;SDS011;58179;48.776;9.124;2023-07-13T10:34:22;2.63;;;1.20;;
55913;SDS011;58179;48.776;9.124;2023-07-13T10:36:48;2.20;;;1.47;;
55913;SDS011;58179;48.776;9.124;2023-07-13T10:39:17;1.27;;;1.10;;
55913;SDS011;58179;48.776;9.124;2023-07-13T10:41:48;3.42;;;1.30;;
55913;SDS011;58179;48.776;9.124;2023-07-13T10:44:18;2.88;;;1.30;;
55913;SDS011;58179;48.776;9.124;2023-07-13T10:46:51;1.90;;;1.20;;
55913;SDS011;58179;48.776;9.124;2023-07-13T10:49:22;1.58;;;1.20;;
55913;SDS011;58179;48.776;9.124;2023-07-13T10:51:51;2.72;;;1.40;;
55913;SDS011;58179;48.776;9.124;2023-07-13T10:54:19;2.33;;;1.47;;
55913;SDS011;58179;48.776;9.124;2023-07-13T10:57:08;1.98;;;1.30;;
55913;SDS011;58179;48.776;9.124;2023-07-13T10:59:43;4.97;;;1.00;;
55913;SDS011;58179;48.776;9.124;2023-07-13T11:02:15;4.60;;;1.60;;
55913;SDS011;58179;48.776;9.124;2023-07-13T11:04:52;3.43;;;1.40;;
55913;SDS011;58179;48.776;9.124;2023-07-13T11:07:20;5.20;;;1.60;;
55913;SDS011;58179;48.776;9.124;2023-07-13T11:09:49;6.70;;;1.70;;
55913;SDS011;58179;48.776;9.124;2023-07-13T11:15:15;2.17;;;1.20;;
55913;SDS011;58179;48.776;9.124;2023-07-13T11:17:55;3.78;;;1.60;;
55913;SDS011;58179;48.776;9.124;2023-07-13T11:20:35;4.03;;;1.42;;
55913;SDS011;58179;48.776;9.124;2023-07-13T11:23:08;2.95;;;1.50;;
55913;SDS011;58179;48.776;9.124;2023-07-13T11:25:43;1.90;;;1.38;;
55913;SDS011;58179;48.776;9.124;2023-07-13T11:28:18;4.07;;;1.23;;
55913;SDS011;58179;48.776;9.124;2023-07-13T11:30:49;1.80;;;1.20;;
55913;SDS011;58179;48.776;9.124;2023-07-13T11:33:28;1.48;;;1.00;;
55913;SDS011;58179;48.776;9.124;2023-07-13T11:36:13;3.53;;;1.25;;
55913;SDS011;58179;48.776;9.124;2023-07-13T11:38:41;2.53;;;1.40;;
55913;SDS011;58179;48.776;9.124;2023-07-13T11:41:13;3.35;;;1.30;;
55913;SDS011;58179;48.776;9.124;2023-07-13T11:43:43;3.30;;;1.40;;
55913;SDS011;58179;48.776;9.124;2023-07-13T11:46:13;1.75;;;1.02;;
55913;SDS011;58179;48.776;9.124;2023-07-13T11:48:41;1.92;;;1.10;;
55913;SDS011;58179;48.776;9.124;2023-07-13T11:51:07;1.67;;;1.10;;
55913;SDS011;58179;48.776;9.124;2023-07-13T11:53:44;4.78;;;1.40;;
55913;SDS011;58179;48.776;9.124;2023-07-13T11:56:12;2.03;;;1.55;;
55913;SDS011;58179;48.776;9.124;2023-07-13T11:58:39;2.55;;;1.38;;
55913;SDS011;58179;48.776;9.124;2023-07-13T12:01:10;2.67;;;1.50;;
55913;SDS011;58179;48.776;9.124;2023-07-13T12:03:43;5.30;;;1.50;;
55913;SDS011;58179;48.776;9.124;2023-07-13T12:06:22;2.40;;;1.20;;
55913;SDS011;58179;48.776;9.124;2023-07-13T12:08:55;4.15;;;1.50;;
55913;SDS011;58179;48.776;9.124;2023-07-13T12:11:23;2.63;;;1.20;;
55913;SDS011;58179;48.776;9.124;2023-07-13T12:13:49;1.50;;;1.15;;
55913;SDS011;58179;48.776;9.124;2023-07-13T12:16:17;1.80;;;1.13;;
55913;SDS011;58179;48.776;9.124;2023-07-13T12:18:52;2.65;;;1.20;;
55913;SDS011;58179;48.776;9.124;2023-07-13T12:21:19;2.80;;;1.13;;
55913;SDS011;58179;48.776;9.124;2023-07-13T12:23:52;6.40;;;1.42;;
55913;SDS011;58179;48.776;9.124;2023-07-13T12:26:21;3.30;;;1.40;;
55913;SDS011;58179;48.776;9.124;2023-07-13T12:28:48;4.68;;;1.30;;
55913;SDS011;58179;48.776;9.124;2023-07-13T12:31:25;1.80;;;1.23;;
55913;SDS011;58179;48.776;9.124;2023-07-13T12:33:58;2.45;;;1.27;;
55913;SDS011;58179;48.776;9.124;2023-07-13T12:36:29;2.10;;;1.17;;
55913;SDS011;58179;48.776;9.124;2023-07-13T12:38:59;2.45;;;1.30;;
55913;SDS011;58179;48.776;9.124;2023-07-13T12:41:29;4.80;;;1.58;;
55913;SDS011;58179;48.776;9.124;2023-07-13T12:43:56;1.90;;;1.20;;
55913;SDS011;58179;48.776;9.124;2023-07-13T12:46:26;5.38;;;1.58;;
55913;SDS011;58179;48.776;9.124;2023-07-13T12:48:54;3.88;;;1.33;;
55913;SDS011;58179;48.776;9.124;2023-07-13T12:51:22;3.75;;;1.73;;
55913;SDS011;58179;48.776;9.124;2023-07-13T12:53:55;4.75;;;1.40;;
55913;SDS011;58179;48.776;9.124;2023-07-13T12:56:25;3.97;;;1.50;;
55913;SDS011;58179;48.776;9.124;2023-07-13T12:58:56;4.53;;;1.48;;
55913;SDS011;58179;48.776;9.124;2023-07-13T13:01:28;5.82;;;1.60;;
55913;SDS011;58179;48.776;9.124;2023-07-13T13:04:00;5.80;;;1.30;;
55913;SDS011;58179;48.776;9.124;2023-07-13T13:06:31;9.45;;;1.65;;
55913;SDS011;58179;48.776;9.124;2023-07-13T13:09:00;3.58;;;1.55;;
55913;SDS011;58179;48.776;9.124;2023-07-13T13:11:30;12.10;;;1.88;;
55913;SDS011;58179;48.776;9.124;2023-07-13T13:13:59;2.00;;;1.23;;
55913;SDS011;58179;48.776;9.124;2023-07-13T13:16:30;3.07;;;1.50;;
55913;SDS011;58179;48.776;9.124;2023-07-13T13:18:59;3.33;;;1.50;;
55913;SDS011;58179;48.776;9.124;2023-07-13T13:21:28;10.45;;;1.58;;
55913;SDS011;58179;48.776;9.124;2023-07-13T13:23:54;7.93;;;1.90;;
55913;SDS011;58179;48.776;9.124;2023-07-13T13:26:21;5.63;;;2.03;;
55913;SDS011;58179;48.776;9.124;2023-07-13T13:28:48;2.80;;;1.60;;
55913;SDS011;58179;48.776;9.124;2023-07-13T13:31:14;4.03;;;1.52;;
55913;SDS011;58179;48.776;9.124;2023-07-13T13:33:44;4.03;;;1.80;;
55913;SDS011;58179;48.776;9.124;2023-07-13T13:36:13;4.70;;;1.40;;
55913;SDS011;58179;48.776;9.124;2023-07-13T13:38:40;4.00;;;1.65;;
55913;SDS011;58179;48.776;9.124;2023-07-13T13:41:07;5.00;;;1.50;;
55913;SDS011;58179;48.776;9.124;2023-07-13T13:43:35;2.95;;;1.27;;
55913;SDS011;58179;48.776;9.124;2023-07-13T13:46:01;2.35;;;1.25;;
55913;SDS011;58179;48.776;9.124;2023-07-13T13:48:35;2.15;;;1.25;;
55913;SDS011;58179;48.776;9.124;2023-07-13T13:51:13;9.25;;;7.72;;
55913;SDS011;58179;48.776;9.124;2023-07-13T13:53:41;3.38;;;2.03;;
55913;SDS011;58179;48.776;9.124;2023-07-13T13:56:08;2.25;;;1.10;;
55913;SDS011;58179;48.776;9.124;2023-07-13T13:58:34;2.95;;;1.33;;
55913;SDS011;58179;48.776;9.124;2023-07-13T14:01:00;3.70;;;1.20;;
55913;SDS011;58179;48.776;9.124;2023-07-13T14:03:26;1.77;;;1.05;;
55913;SDS011;58179;48.776;9.124;2023-07-13T14:05:53;1.52;;;1.20;;
55913;SDS011;58179;48.776;9.124;2023-07-13T14:08:22;2.97;;;1.60;;
55913;SDS011;58179;48.776;9.124;2023-07-13T14:10:48;2.73;;;1.33;;
55913;SDS011;58179;48.776;9.124;2023-07-13T14:13:18;2.03;;;1.35;;
55913;SDS011;58179;48.776;9.124;2023-07-13T14:15:48;4.07;;;1.40;;
55913;SDS011;58179;48.776;9.124;2023-07-13T14:18:14;2.95;;;1.40;;
55913;SDS011;58179;48.776;9.124;2023-07-13T14:20:43;2.45;;;1.30;;
55913;SDS011;58179;48.776;9.124;2023-07-13T14:23:12;3.20;;;1.38;;
55913;SDS011;58179;48.776;9.124;2023-07-13T14:25:40;4.97;;;1.20;;
55913;SDS011;58179;48.776;9.124;2023-07-13T14:28:11;2.77;;;1.30;;
55913;SDS011;58179;48.776;9.124;2023-07-13T14:30:44;9.18;;;1.60;;
55913;SDS011;58179;48.776;9.124;2023-07-13T14:33:11;6.57;;;1.30;;
55913;SDS011;58179;48.776;9.124;2023-07-13T14:35:37;4.22;;;1.50;;
55913;SDS011;58179;48.776;9.124;2023-07-13T14:38:03;2.38;;;1.20;;
55913;SDS011;58179;48.776;9.124;2023-07-13T14:40:33;8.55;;;1.50;;
55913;SDS011;58179;48.776;9.124;2023-07-13T14:43:01;6.47;;;1.38;;
55913;SDS011;58179;48.776;9.124;2023-07-13T14:45:27;2.90;;;1.20;;
55913;SDS011;58179;48.776;9.124;2023-07-13T14:47:55;14.65;;;8.57;;
55913;SDS011;58179;48.776;9.124;2023-07-13T14:50:24;7.15;;;2.25;;
55913;SDS011;58179;48.776;9.124;2023-07-13T14:52:55;5.90;;;1.40;;
55913;SDS011;58179;48.776;9.124;2023-07-13T14:55:21;1.97;;;1.00;;
55913;SDS011;58179;48.776;9.124;2023-07-13T14:57:51;2.90;;;1.20;;
55913;SDS011;58179;48.776;9.124;2023-07-13T15:00:19;4.25;;;1.48;;